createdAt,value
2022-07-29T00:00:24.616Z,23.82
2022-07-29T00:03:05.891Z,24.19
2022-07-29T00:05:34.307Z,24.17
2022-07-29T00:08:02.419Z,23.92
2022-07-29T00:10:30.513Z,24.38
2022-07-29T00:12:58.866Z,25.16
2022-07-29T00:15:27.245Z,25.05
2022-07-29T00:17:55.345Z,24.68
2022-07-29T00:20:25.030Z,24.11
2022-07-29T00:22:54.252Z,24.49
2022-07-29T00:25:22.533Z,24.50
2022-07-29T00:27:50.885Z,24.04
2022-07-29T00:30:19.159Z,24.51
2022-07-29T00:32:47.298Z,24.50
2022-07-29T00:35:33.495Z,24.06
2022-07-29T00:38:03.073Z,24.24
2022-07-29T00:40:31.719Z,24.63
2022-07-29T00:43:00.035Z,24.31
2022-07-29T00:45:28.275Z,24.16
2022-07-29T00:47:56.970Z,23.87
2022-07-29T00:50:25.532Z,23.14
2022-07-29T00:52:54.390Z,22.99
2022-07-29T00:55:24.346Z,23.49
2022-07-29T00:57:52.932Z,23.22
2022-07-29T01:00:24.029Z,23.04
2022-07-29T01:02:52.668Z,22.46
2022-07-29T01:05:22.354Z,22.78
2022-07-29T01:07:52.209Z,22.35
2022-07-29T01:10:22.139Z,22.52
2022-07-29T01:12:53.898Z,22.92
2022-07-29T01:15:22.553Z,23.01
2022-07-29T01:17:55.159Z,22.66
2022-07-29T01:20:31.233Z,22.69
2022-07-29T01:23:38.914Z,22.03
2022-07-29T01:26:24.590Z,21.80
2022-07-29T01:29:07.583Z,21.89
2022-07-29T01:31:58.531Z,21.74
2022-07-29T01:34:33.396Z,21.87
2022-07-29T01:37:09.213Z,21.94
2022-07-29T01:39:39.398Z,22.03
2022-07-29T01:42:14.430Z,21.92
2022-07-29T01:44:49.374Z,21.87
2022-07-29T01:47:22.576Z,22.19
2022-07-29T01:49:54.137Z,22.12
2022-07-29T01:52:25.736Z,21.79
2022-07-29T01:54:56.215Z,21.72
2022-07-29T01:57:29.713Z,21.78
2022-07-29T02:00:01.609Z,21.52
2022-07-29T02:02:31.001Z,21.64
2022-07-29T02:05:00.008Z,21.60
2022-07-29T02:07:30.727Z,21.07
2022-07-29T02:10:00.523Z,21.71
2022-07-29T02:12:30.508Z,21.74
2022-07-29T02:15:02.373Z,21.12
2022-07-29T02:17:35.663Z,21.42
2022-07-29T02:20:08.486Z,21.77
2022-07-29T02:22:40.179Z,21.51
2022-07-29T02:25:13.770Z,20.68
2022-07-29T02:27:43.672Z,21.91
2022-07-29T02:30:14.470Z,21.34
2022-07-29T02:32:44.245Z,21.24
2022-07-29T02:35:16.791Z,21.12
2022-07-29T02:37:45.874Z,21.67
2022-07-29T02:40:15.493Z,21.74
2022-07-29T02:42:44.694Z,21.34
2022-07-29T02:45:14.247Z,21.45
2022-07-29T02:47:46.013Z,20.74
2022-07-29T02:50:18.181Z,21.35
2022-07-29T02:52:48.138Z,21.38
2022-07-29T02:55:19.590Z,21.29
2022-07-29T02:57:54.850Z,21.41
2022-07-29T03:00:26.434Z,21.36
2022-07-29T03:02:56.480Z,21.22
2022-07-29T03:05:25.277Z,21.78
2022-07-29T03:08:04.453Z,21.21
2022-07-29T03:10:34.061Z,21.23
2022-07-29T03:13:02.905Z,20.88
2022-07-29T03:15:33.721Z,21.17
2022-07-29T03:18:02.198Z,21.39
2022-07-29T03:20:30.451Z,21.26
2022-07-29T03:22:58.713Z,21.16
2022-07-29T03:25:28.203Z,21.20
2022-07-29T03:27:57.790Z,21.30
2022-07-29T03:30:26.432Z,21.53
2022-07-29T03:32:58.690Z,21.35
2022-07-29T03:35:26.904Z,19.94
2022-07-29T03:37:55.045Z,21.45
2022-07-29T03:40:26.586Z,21.04
2022-07-29T03:42:54.576Z,20.60
2022-07-29T03:45:23.059Z,21.81
2022-07-29T03:47:59.934Z,21.48
2022-07-29T03:50:31.415Z,20.82
2022-07-29T03:53:00.256Z,21.34
2022-07-29T03:55:31.147Z,21.86
2022-07-29T03:57:59.786Z,22.06
2022-07-29T04:00:29.405Z,21.80
2022-07-29T04:02:58.119Z,21.58
2022-07-29T04:05:26.348Z,21.86
2022-07-29T04:07:56.156Z,21.53
2022-07-29T04:10:30.456Z,21.68
2022-07-29T04:13:00.801Z,21.44
2022-07-29T04:15:30.955Z,21.54
2022-07-29T04:18:00.497Z,21.29
2022-07-29T04:20:29.123Z,21.57
2022-07-29T04:22:58.714Z,21.62
2022-07-29T04:25:26.958Z,21.03
2022-07-29T04:28:04.398Z,21.37
2022-07-29T04:30:34.490Z,21.00
2022-07-29T04:33:03.208Z,21.09
2022-07-29T04:35:38.022Z,20.52
2022-07-29T04:38:15.946Z,20.40
2022-07-29T04:40:45.592Z,21.22
2022-07-29T04:43:16.155Z,21.08
2022-07-29T04:45:44.455Z,21.42
2022-07-29T04:48:12.842Z,21.30
2022-07-29T04:50:41.599Z,21.68
2022-07-29T04:53:11.303Z,21.73
2022-07-29T04:55:39.664Z,22.13
2022-07-29T04:58:08.600Z,21.34
2022-07-29T05:00:37.264Z,21.54
2022-07-29T05:03:05.753Z,20.57
2022-07-29T05:05:34.378Z,20.72
2022-07-29T05:08:02.926Z,20.26
2022-07-29T05:10:32.626Z,18.83
2022-07-29T05:13:00.995Z,19.00
2022-07-29T05:15:29.203Z,18.00
2022-07-29T05:17:57.819Z,17.82
2022-07-29T05:20:29.311Z,18.20
2022-07-29T05:22:57.325Z,16.77
2022-07-29T05:25:42.461Z,17.46
2022-07-29T05:28:14.521Z,17.26
2022-07-29T05:30:42.851Z,17.30
2022-07-29T05:33:34.712Z,16.83
2022-07-29T05:36:00.736Z,17.62
2022-07-29T05:38:30.404Z,18.51
2022-07-29T05:40:59.765Z,18.40
2022-07-29T05:43:30.152Z,17.97
2022-07-29T05:45:58.521Z,17.27
2022-07-29T05:48:27.022Z,16.46
2022-07-29T05:50:55.890Z,17.16
2022-07-29T05:53:24.848Z,17.13
2022-07-29T05:55:53.013Z,16.61
2022-07-29T05:58:22.393Z,16.08
2022-07-29T06:00:51.961Z,15.91
2022-07-29T06:03:20.052Z,16.42
2022-07-29T06:05:48.424Z,15.70
2022-07-29T06:08:16.582Z,15.57
2022-07-29T06:10:45.238Z,16.21
2022-07-29T06:13:13.824Z,15.95
2022-07-29T06:15:42.324Z,15.54
2022-07-29T06:18:11.935Z,15.06
2022-07-29T06:20:40.263Z,14.39
2022-07-29T06:23:08.512Z,14.98
2022-07-29T06:25:37.848Z,14.70
2022-07-29T06:28:06.466Z,15.98
2022-07-29T06:30:34.661Z,15.98
2022-07-29T06:33:03.111Z,15.10
2022-07-29T06:35:39.214Z,14.91
2022-07-29T06:38:31.743Z,14.79
2022-07-29T06:41:02.253Z,14.74
2022-07-29T06:43:32.734Z,14.31
2022-07-29T06:46:02.490Z,14.29
2022-07-29T06:48:30.983Z,13.34
2022-07-29T06:51:00.797Z,12.89
2022-07-29T06:53:29.683Z,13.07
2022-07-29T06:55:59.234Z,13.20
2022-07-29T06:58:27.685Z,13.58
2022-07-29T07:00:56.937Z,13.12
2022-07-29T07:03:25.562Z,13.25
2022-07-29T07:05:55.686Z,13.47
2022-07-29T07:08:25.750Z,13.21
2022-07-29T07:10:54.194Z,12.95
2022-07-29T07:13:22.341Z,12.82
2022-07-29T07:15:51.937Z,13.07
2022-07-29T07:18:20.740Z,14.28
2022-07-29T07:20:48.968Z,14.63
2022-07-29T07:23:17.325Z,14.51
2022-07-29T07:25:46.878Z,14.31
2022-07-29T07:28:15.057Z,13.96
2022-07-29T07:30:43.499Z,13.95
2022-07-29T07:33:11.695Z,13.14
2022-07-29T07:35:40.232Z,13.04
2022-07-29T07:38:08.746Z,13.30
2022-07-29T07:40:37.401Z,13.43
2022-07-29T07:43:07.114Z,12.33
2022-07-29T07:45:38.310Z,12.33
2022-07-29T07:48:07.388Z,13.00
2022-07-29T07:50:35.508Z,13.61
2022-07-29T07:53:04.280Z,13.78
2022-07-29T07:55:53.266Z,13.93
2022-07-29T07:58:22.203Z,13.74
2022-07-29T08:00:50.429Z,13.56
2022-07-29T08:03:18.657Z,12.57
2022-07-29T08:05:48.482Z,11.78
2022-07-29T08:08:16.599Z,11.51
2022-07-29T08:10:57.862Z,11.65
2022-07-29T08:13:31.248Z,11.42
2022-07-29T08:16:01.245Z,11.41
2022-07-29T08:18:32.168Z,10.94
2022-07-29T08:21:00.325Z,10.30
2022-07-29T08:23:46.867Z,12.11
2022-07-29T08:26:17.752Z,12.31
2022-07-29T08:28:50.420Z,12.20
2022-07-29T08:31:19.194Z,11.27
2022-07-29T08:33:47.420Z,10.55
2022-07-29T08:36:15.726Z,11.03
2022-07-29T08:38:43.986Z,11.13
2022-07-29T08:41:12.132Z,11.58
2022-07-29T08:43:42.874Z,10.84
2022-07-29T08:46:12.818Z,10.59
2022-07-29T08:48:41.411Z,9.96
2022-07-29T08:51:10.485Z,9.49
2022-07-29T08:53:39.400Z,9.60
2022-07-29T08:56:08.377Z,10.16
2022-07-29T08:58:38.460Z,9.67
2022-07-29T09:01:07.639Z,10.34
2022-07-29T09:03:42.747Z,9.64
2022-07-29T09:06:11.786Z,9.28
2022-07-29T09:08:40.139Z,9.66
2022-07-29T09:11:08.612Z,9.60
2022-07-29T09:13:37.200Z,10.56
2022-07-29T09:16:09.307Z,10.64
2022-07-29T09:18:39.890Z,10.17
2022-07-29T09:21:32.024Z,8.68
2022-07-29T09:24:06.353Z,7.38
2022-07-29T09:26:35.716Z,8.58
2022-07-29T09:29:11.513Z,9.32
2022-07-29T09:31:41.031Z,10.55
2022-07-29T09:34:10.205Z,10.97
2022-07-29T09:36:42.743Z,10.67
2022-07-29T09:39:11.441Z,10.92
2022-07-29T09:41:48.773Z,11.18
2022-07-29T09:44:22.702Z,12.31
2022-07-29T09:47:06.992Z,12.00
2022-07-29T09:49:35.789Z,11.00
2022-07-29T09:52:09.465Z,9.92
2022-07-29T09:54:40.945Z,9.84
2022-07-29T09:57:13.521Z,10.23
2022-07-29T09:59:50.373Z,10.18
2022-07-29T10:02:23.663Z,10.37
2022-07-29T10:04:52.523Z,10.91
2022-07-29T10:07:21.989Z,10.73
2022-07-29T10:09:56.128Z,10.82
2022-07-29T10:12:27.628Z,11.05
2022-07-29T10:14:56.088Z,10.87
2022-07-29T10:17:24.599Z,10.96
2022-07-29T10:19:52.967Z,11.30
2022-07-29T10:22:51.546Z,12.01
2022-07-29T10:25:11.893Z,12.26
2022-07-29T10:27:40.371Z,11.68
2022-07-29T10:30:09.572Z,11.62
2022-07-29T10:32:52.452Z,11.11
2022-07-29T10:35:43.866Z,10.22
2022-07-29T10:38:30.246Z,8.45
2022-07-29T10:41:23.364Z,8.40
2022-07-29T10:43:52.671Z,7.41
2022-07-29T10:46:23.020Z,7.21
2022-07-29T10:49:15.697Z,7.15
2022-07-29T10:51:54.527Z,6.52
2022-07-29T10:54:51.102Z,6.47
2022-07-29T10:57:53.411Z,6.85
2022-07-29T11:00:32.419Z,7.09
2022-07-29T11:03:04.848Z,8.38
2022-07-29T11:05:56.211Z,8.43
2022-07-29T11:08:27.999Z,9.25
2022-07-29T11:11:37.939Z,9.17
2022-07-29T11:14:10.428Z,8.87
2022-07-29T11:17:02.065Z,9.28
2022-07-29T11:19:31.024Z,10.64
2022-07-29T11:21:59.482Z,10.86
2022-07-29T11:24:34.924Z,10.96
2022-07-29T11:27:18.284Z,10.41
2022-07-29T11:29:57.447Z,10.19
2022-07-29T11:32:29.444Z,10.61
2022-07-29T11:35:17.040Z,10.75
2022-07-29T11:37:52.714Z,11.61
2022-07-29T11:40:24.175Z,12.29
2022-07-29T11:42:52.831Z,11.75
2022-07-29T11:45:44.460Z,11.45
2022-07-29T11:48:31.997Z,10.66
2022-07-29T11:51:01.357Z,11.13
2022-07-29T11:53:32.530Z,11.57
2022-07-29T11:56:02.452Z,11.30
2022-07-29T11:58:31.839Z,11.27
2022-07-29T12:01:04.494Z,11.34
2022-07-29T12:03:35.924Z,11.68
2022-07-29T12:06:07.573Z,11.48
2022-07-29T12:08:43.801Z,11.65
2022-07-29T12:11:20.914Z,11.12
2022-07-29T12:13:50.822Z,11.58
2022-07-29T12:16:25.833Z,11.13
2022-07-29T12:19:07.913Z,10.91
2022-07-29T12:21:53.792Z,11.95
2022-07-29T12:24:26.938Z,13.13
2022-07-29T12:26:56.981Z,13.25
2022-07-29T12:29:35.275Z,13.40
2022-07-29T12:32:14.883Z,12.12
2022-07-29T12:34:48.002Z,11.48
2022-07-29T12:37:16.193Z,12.28
2022-07-29T12:39:44.625Z,11.90
2022-07-29T12:42:15.011Z,12.74
2022-07-29T12:44:50.772Z,12.73
2022-07-29T12:47:21.122Z,12.86
2022-07-29T12:49:50.321Z,12.61
2022-07-29T12:52:29.833Z,11.55
2022-07-29T12:54:58.751Z,11.47
2022-07-29T12:57:27.105Z,11.17
2022-07-29T13:00:04.086Z,10.41
2022-07-29T13:02:34.038Z,9.93
2022-07-29T13:05:03.224Z,10.91
2022-07-29T13:07:54.094Z,11.19
2022-07-29T13:10:24.457Z,10.63
2022-07-29T13:13:10.529Z,10.04
2022-07-29T13:15:40.012Z,10.03
2022-07-29T13:18:30.247Z,9.85
2022-07-29T13:20:58.986Z,10.93
2022-07-29T13:23:27.253Z,10.82
2022-07-29T13:25:55.368Z,11.06
2022-07-29T13:28:23.864Z,10.75
2022-07-29T13:30:52.072Z,10.80
2022-07-29T13:33:20.259Z,10.61
2022-07-29T13:35:49.986Z,10.04
2022-07-29T13:38:18.090Z,11.25
2022-07-29T13:40:46.191Z,11.39
2022-07-29T13:43:14.595Z,11.95
2022-07-29T13:45:42.964Z,11.93
2022-07-29T13:48:12.247Z,12.05
2022-07-29T13:50:40.666Z,12.45
2022-07-29T13:53:10.423Z,12.55
2022-07-29T13:55:46.685Z,12.60
2022-07-29T13:58:15.402Z,12.48
2022-07-29T14:00:43.564Z,12.10
2022-07-29T14:03:12.098Z,11.92
2022-07-29T14:05:40.363Z,12.51
2022-07-29T14:08:08.676Z,12.51
2022-07-29T14:10:38.310Z,11.95
2022-07-29T14:13:06.610Z,11.85
2022-07-29T14:15:53.274Z,12.16
2022-07-29T14:18:21.497Z,12.75
2022-07-29T14:20:49.701Z,12.73
2022-07-29T14:23:17.976Z,12.92
2022-07-29T14:25:49.759Z,12.58
2022-07-29T14:28:17.998Z,12.45
2022-07-29T14:30:46.354Z,12.48
2022-07-29T14:33:14.820Z,12.60
2022-07-29T14:35:43.095Z,12.80
2022-07-29T14:38:11.442Z,13.22
2022-07-29T14:40:40.171Z,13.25
2022-07-29T14:43:09.645Z,12.99
2022-07-29T14:45:39.199Z,12.97
2022-07-29T14:48:07.826Z,13.11
2022-07-29T14:50:35.994Z,14.09
2022-07-29T14:53:04.462Z,13.00
2022-07-29T14:55:32.793Z,13.32
2022-07-29T14:58:09.718Z,13.47
2022-07-29T15:00:41.100Z,13.20
2022-07-29T15:03:11.572Z,13.40
2022-07-29T15:05:40.028Z,13.54
2022-07-29T15:08:09.427Z,14.09
2022-07-29T15:10:37.706Z,13.76
2022-07-29T15:13:05.875Z,13.62
2022-07-29T15:15:34.213Z,14.22
2022-07-29T15:18:03.962Z,14.29
2022-07-29T15:20:32.341Z,13.84
2022-07-29T15:23:00.871Z,14.65
2022-07-29T15:25:29.056Z,14.02
2022-07-29T15:28:01.169Z,14.51
2022-07-29T15:30:33.494Z,14.90
2022-07-29T15:33:04.492Z,14.19
2022-07-29T15:35:33.186Z,14.04
2022-07-29T15:38:01.369Z,14.11
2022-07-29T15:40:29.905Z,14.29
2022-07-29T15:42:58.503Z,14.95
2022-07-29T15:45:26.816Z,15.21
2022-07-29T15:48:00.414Z,15.01
2022-07-29T15:50:30.168Z,15.05
2022-07-29T15:52:58.871Z,14.92
2022-07-29T15:55:27.524Z,16.09
2022-07-29T15:58:00.281Z,15.62
2022-07-29T16:00:29.143Z,15.51
2022-07-29T16:02:57.389Z,15.42
2022-07-29T16:05:25.842Z,15.19
2022-07-29T16:07:55.576Z,15.36
2022-07-29T16:10:23.927Z,15.13
2022-07-29T16:12:52.168Z,15.86
2022-07-29T16:15:20.781Z,15.33
2022-07-29T16:17:50.462Z,15.88
2022-07-29T16:20:18.622Z,15.30
2022-07-29T16:22:47.279Z,14.97
2022-07-29T16:25:16.869Z,14.97
2022-07-29T16:27:45.259Z,14.80
2022-07-29T16:30:13.959Z,15.56
2022-07-29T16:32:42.276Z,16.60
2022-07-29T16:35:13.178Z,17.51
2022-07-29T16:37:41.866Z,17.98
2022-07-29T16:40:11.703Z,17.92
2022-07-29T16:42:46.984Z,18.28
2022-07-29T16:45:16.812Z,18.18
2022-07-29T16:47:46.348Z,18.37
2022-07-29T16:50:14.640Z,18.75
2022-07-29T16:52:42.974Z,19.12
2022-07-29T16:55:11.280Z,20.19
2022-07-29T16:57:39.456Z,20.31
2022-07-29T17:00:10.626Z,20.49
2022-07-29T17:02:39.403Z,20.76
2022-07-29T17:05:08.499Z,19.79
2022-07-29T17:07:36.906Z,19.68
2022-07-29T17:10:08.128Z,19.94
2022-07-29T17:12:36.515Z,19.88
2022-07-29T17:15:05.498Z,20.90
2022-07-29T17:17:39.512Z,21.07
2022-07-29T17:20:23.543Z,21.85
2022-07-29T17:22:51.772Z,22.02
2022-07-29T17:25:20.640Z,22.98
2022-07-29T17:27:50.731Z,22.29
2022-07-29T17:30:19.498Z,23.29
2022-07-29T17:32:48.965Z,22.91
2022-07-29T17:35:34.965Z,23.36
2022-07-29T17:38:03.094Z,22.86
2022-07-29T17:40:31.541Z,23.19
2022-07-29T17:42:59.890Z,22.80
2022-07-29T17:45:48.759Z,23.17
2022-07-29T17:48:17.822Z,22.91
2022-07-29T17:50:46.082Z,22.85
2022-07-29T17:53:16.563Z,22.35
2022-07-29T17:55:45.944Z,22.82
2022-07-29T17:58:14.226Z,23.33
2022-07-29T18:00:42.952Z,22.49
2022-07-29T18:03:11.688Z,23.56
2022-07-29T18:05:41.405Z,23.62
2022-07-29T18:08:09.649Z,23.88
2022-07-29T18:10:38.583Z,24.86
2022-07-29T18:13:07.455Z,25.14
2022-07-29T18:15:36.086Z,25.15
2022-07-29T18:18:04.576Z,24.37
2022-07-29T18:20:33.097Z,24.36
2022-07-29T18:23:02.876Z,24.29
2022-07-29T18:25:31.498Z,24.46
2022-07-29T18:28:00.652Z,23.78
2022-07-29T18:30:29.232Z,23.68
2022-07-29T18:33:19.863Z,23.39
2022-07-29T18:35:46.337Z,23.45
2022-07-29T18:38:16.108Z,23.82
2022-07-29T18:40:46.032Z,24.63
2022-07-29T18:43:14.775Z,24.14
2022-07-29T18:45:43.343Z,24.80
2022-07-29T18:48:12.948Z,25.50
2022-07-29T18:50:42.078Z,26.26
2022-07-29T18:53:10.628Z,25.90
2022-07-29T18:55:40.093Z,26.19
2022-07-29T18:58:08.265Z,26.35
2022-07-29T19:00:36.680Z,26.60
2022-07-29T19:03:05.122Z,26.62
2022-07-29T19:05:33.497Z,26.69
2022-07-29T19:08:01.881Z,26.56
2022-07-29T19:10:30.518Z,28.11
2022-07-29T19:12:59.968Z,28.20
2022-07-29T19:15:28.660Z,28.18
2022-07-29T19:18:00.978Z,27.89
2022-07-29T19:20:29.989Z,27.96
2022-07-29T19:22:58.681Z,27.96
2022-07-29T19:25:26.956Z,27.47
2022-07-29T19:27:55.352Z,27.55
2022-07-29T19:30:24.848Z,26.71
2022-07-29T19:32:53.043Z,26.58
2022-07-29T19:35:31.149Z,26.66
2022-07-29T19:38:00.763Z,26.44
2022-07-29T19:40:30.248Z,26.94
2022-07-29T19:42:59.112Z,26.81
2022-07-29T19:45:29.057Z,26.61
2022-07-29T19:48:01.279Z,26.61
2022-07-29T19:50:30.504Z,26.30
2022-07-29T19:52:59.138Z,26.20
2022-07-29T19:55:27.400Z,25.79
2022-07-29T19:57:55.707Z,25.45
2022-07-29T20:00:25.266Z,25.92
2022-07-29T20:02:56.536Z,25.63
2022-07-29T20:05:27.843Z,25.01
2022-07-29T20:07:56.643Z,25.29
2022-07-29T20:10:25.341Z,25.99
2022-07-29T20:12:55.174Z,26.19
2022-07-29T20:15:23.996Z,26.44
2022-07-29T20:17:57.012Z,26.33
2022-07-29T20:20:27.646Z,26.36
2022-07-29T20:22:55.871Z,27.00
2022-07-29T20:25:25.315Z,26.95
2022-07-29T20:27:54.410Z,26.96
2022-07-29T20:30:23.441Z,26.98
2022-07-29T20:32:51.895Z,27.27
2022-07-29T20:35:22.435Z,27.52
2022-07-29T20:37:56.024Z,27.13
2022-07-29T20:40:25.597Z,27.81
2022-07-29T20:42:53.815Z,27.52
2022-07-29T20:45:22.598Z,28.11
2022-07-29T20:47:51.938Z,27.90
2022-07-29T20:50:23.984Z,28.06
2022-07-29T20:52:54.218Z,27.50
2022-07-29T20:55:22.420Z,28.62
2022-07-29T20:57:50.792Z,28.67
2022-07-29T21:00:19.303Z,29.30
2022-07-29T21:02:47.643Z,28.94
2022-07-29T21:05:16.326Z,29.06
2022-07-29T21:07:44.752Z,29.47
2022-07-29T21:10:15.085Z,29.03
2022-07-29T21:12:43.250Z,28.90
2022-07-29T21:15:13.638Z,29.14
2022-07-29T21:17:46.905Z,28.41
2022-07-29T21:20:16.093Z,28.45
2022-07-29T21:22:44.775Z,27.49
2022-07-29T21:25:14.321Z,27.57
2022-07-29T21:28:00.346Z,28.19
2022-07-29T21:30:28.508Z,27.53
2022-07-29T21:32:56.918Z,27.55
2022-07-29T21:36:01.844Z,27.94
2022-07-29T21:38:13.384Z,28.86
2022-07-29T21:40:42.868Z,27.84
2022-07-29T21:43:11.105Z,28.69
2022-07-29T21:45:39.597Z,28.78
2022-07-29T21:48:08.190Z,28.06
2022-07-29T21:50:36.759Z,28.73
2022-07-29T21:53:04.998Z,28.04
2022-07-29T21:55:33.911Z,28.74
2022-07-29T21:58:04.364Z,28.40
2022-07-29T22:00:33.968Z,28.78
2022-07-29T22:03:02.601Z,29.13
2022-07-29T22:05:31.123Z,28.49
2022-07-29T22:08:00.043Z,28.76
2022-07-29T22:10:29.881Z,28.56
2022-07-29T22:12:59.322Z,27.93
2022-07-29T22:15:29.741Z,27.96
2022-07-29T22:17:57.918Z,28.42
2022-07-29T22:20:26.259Z,27.87
2022-07-29T22:22:55.070Z,27.49
2022-07-29T22:25:23.371Z,27.21
2022-07-29T22:27:51.766Z,27.60
2022-07-29T22:30:20.281Z,27.19
2022-07-29T22:32:49.731Z,26.85
2022-07-29T22:35:18.152Z,27.18
2022-07-29T22:37:46.446Z,27.88
2022-07-29T22:40:14.611Z,28.99
2022-07-29T22:42:42.697Z,28.76
2022-07-29T22:45:11.815Z,27.64
2022-07-29T22:47:48.303Z,28.20
2022-07-29T22:50:18.762Z,27.73
2022-07-29T22:52:47.097Z,27.75
2022-07-29T22:55:15.231Z,27.88
2022-07-29T22:57:43.497Z,27.58
2022-07-29T23:00:13.607Z,27.49
2022-07-29T23:02:41.848Z,28.27
2022-07-29T23:05:11.416Z,28.27
2022-07-29T23:07:41.079Z,28.16
2022-07-29T23:10:10.312Z,27.76
2022-07-29T23:12:39.087Z,28.12
2022-07-29T23:15:07.907Z,28.13
2022-07-29T23:17:36.883Z,28.28
2022-07-29T23:20:08.037Z,27.79
2022-07-29T23:22:36.347Z,28.85
2022-07-29T23:25:07.374Z,27.81
2022-07-29T23:27:35.650Z,26.64
2022-07-29T23:30:04.249Z,27.66
2022-07-29T23:32:32.288Z,28.16
2022-07-29T23:35:00.548Z,28.02
2022-07-29T23:37:28.844Z,27.98
2022-07-29T23:39:57.066Z,27.86
2022-07-29T23:42:26.785Z,27.64
2022-07-29T23:44:54.911Z,27.79
2022-07-29T23:47:23.034Z,27.26
2022-07-29T23:49:51.781Z,26.83
2022-07-29T23:52:19.901Z,26.67
2022-07-29T23:54:48.259Z,26.59
2022-07-29T23:57:16.665Z,26.52
2022-07-29T23:59:46.178Z,26.65
